Perkins, Michigan
Current Conditions -  °F | °C
As of 11:15 AM on Friday 24 Oct 2014 (Local Time) from KESC Reporting Station
Overcast Overcast  
Wind Chill: 41°   Ceiling: 300
Heat Index: 45°   Visibility: 3mi
Dew Point: 43°   Wind: 7mph
Humidity: 93%   Direction: 270°W
Pressure: 29.98"   Gusts: NA
Location:  45.98°N, 87.07°W
Report Text: KESC 241515Z AUTO 27006KT 3SM OVC003 07/06 A2998 RMK AO1
Loading
Personal Weather Stations






























Interactive Weather Map
Tropical Storm Tracking
New forecast layout! Learn more

10-Day Weather Forecast

Advertisements
Track Severe Weather on mobile